Portada
METAR-TAF:

METAR-TAF

Aeroports :

Tilimsen, Algèria

latitud: 35-01N, longitud: 001-28W, altitud: 247 m

Observació

L'informe es va fer fa 28 minuts, a les 19:00 UTC
Vent 5 kt del Sud-Oest
Temperatura 26°C
Humitat 23%
Pressió 1019 hPa
Visibilitat 10 km o més
sense núvols per sota de 1500 mi sense presència de cumulonimbus.

METAR: DAON 251900Z 23005KT CAVOK 26/03 Q1019

Hora: 20:28 (19:28 UTC)

Pronòstic

L'informe es va fer fa 2 hores i 28 minuts, a les 17:00 UTC
Pronòstic vàlid del 25 a les 18 UTC al 26 a les 18 UTC
Vent 12 kt del Oest amb ràfegues de 22 kt
Visibilitat 10 km o més
sense núvols per sota de 1500 mi sense presència de cumulonimbus.
Evolucionant progressivament
l' 25 a les 22 UTC al 26 a les 02 UTC
Vent 2 kt amb direcció variable
Evolucionant progressivament
l' 26 a les 12 UTC al 26 a les 15 UTC
Vent 12 kt del Nord-Oest

TAF: DAON 251700Z 2518/2618 27012G22KT CAVOK BECMG 2522/2602 VRB02KT BECMG 2612/2615 32012KT

Observacions i pronòstics meteorològics de més de 4000 aeroports (METAR i TAF).

Les estacions disponibles són els punts grocs i vermells al mapa.

Posi el ratolí al punt desitjat per veure el nom de l'estació.

Feu clic per veure les observacions i els pronòstics meteorològics.

Per canviar el mapa: feu clic els botons verds amb una creu de color negre per apropar; al botó verd amb un guió per allunyar la imatge; o en les fletxes verdes per a mapes adjacents.


METAR-TAF: